Oldebroek, Netherlands
Current Conditions -  °F | °C
As of 6:25 PM on Thursday 23 Oct 2014 (Local Time) from EHDL Reporting Station
Overcast Overcast  
Wind Chill: 55°   Ceiling: 3700
Heat Index: 55°   Visibility: 6mi
Dew Point: 50°   Wind: 7mph
Humidity: 82%   Direction: 180°S
Pressure: 30.12"   Gusts: NA
Location:  52.45°N, 5.9°E
Report Text: EHDL 231625Z AUTO 18006KT 9999 BKN037 OVC042 13/10 Q1020 BLU
Loading
Personal Weather Stations






























Interactive Weather Map
Tropical Storm Tracking
New forecast layout! Learn more

10-Day Weather Forecast

Advertisements
Track Severe Weather on mobile